Time;durP1;ratioP1;P1;durP2;ratioP2;P2;SDS_P1;SDS_P2;PMS_P1;PMS_P2;Temp;Humidity;BMP_temperature;BMP_pressure;BME280_temperature;BME280_humidity;BME280_pressure;Samples;Min_cycle;Max_cycle;Signal;HPM_P1;HPM_P2
2020/12/04 00:01:26;;;;;;;33.50;19.45;;;;;;;;;;5035873;28;20044;-62
2020/12/04 00:03:52;;;;;;;31.23;18.40;;;;;;;;;;5035102;28;20033;-62
2020/12/04 00:06:18;;;;;;;29.90;18.23;;;;;;;;;;5035571;28;20410;-62
2020/12/04 00:08:43;;;;;;;34.15;19.27;;;;;;;;;;5035389;28;20021;-62
2020/12/04 00:11:09;;;;;;;38.35;21.40;;;;;;;;;;5035758;28;20018;-62
2020/12/04 00:13:35;;;;;;;34.22;19.80;;;;;;;;;;5033691;28;20033;-62
2020/12/04 00:16:00;;;;;;;36.63;20.85;;;;;;;;;;5033157;28;20025;-61
2020/12/04 00:18:26;;;;;;;30.35;19.05;;;;;;;;;;5035633;28;20033;-62
2020/12/04 00:20:52;;;;;;;33.90;19.30;;;;;;;;;;5017555;28;20143;-62
2020/12/04 00:23:17;;;;;;;33.30;19.02;;;;;;;;;;5035659;28;20026;-62
2020/12/04 00:25:43;;;;;;;31.65;20.33;;;;;;;;;;5034474;28;20023;-62
2020/12/04 00:28:08;;;;;;;32.83;17.80;;;;;;;;;;5035624;28;20029;-61
2020/12/04 00:30:34;;;;;;;31.08;19.35;;;;;;;;;;5035347;28;20021;-61
2020/12/04 00:32:59;;;;;;;34.03;21.30;;;;;;;;;;5033988;28;20041;-62
2020/12/04 00:35:25;;;;;;;31.77;18.95;;;;;;;;;;5035105;28;20467;-62
2020/12/04 00:37:51;;;;;;;32.20;20.50;;;;;;;;;;5033674;28;20078;-62
2020/12/04 00:40:17;;;;;;;28.75;17.65;;;;;;;;;;5035219;28;20033;-62
2020/12/04 00:42:46;;;;;;;29.25;19.35;;;;;;;;;;5035212;28;20033;-62
2020/12/04 00:45:13;;;;;;;28.83;18.63;;;;;;;;;;5034056;28;20062;-62
2020/12/04 00:47:39;;;;;;;32.50;19.10;;;;;;;;;;5034091;28;20029;-62
2020/12/04 00:50:05;;;;;;;33.47;18.58;;;;;;;;;;5033559;28;20112;-62
2020/12/04 00:52:31;;;;;;;29.90;19.05;;;;;;;;;;5034623;28;20037;-62
2020/12/04 00:54:57;;;;;;;29.73;18.25;;;;;;;;;;5033787;28;20353;-62
2020/12/04 00:57:22;;;;;;;28.83;16.75;;;;;;;;;;5033512;28;20022;-62
2020/12/04 00:59:50;;;;;;;28.40;17.92;;;;;;;;;;5033760;28;20060;-62
2020/12/04 01:02:15;;;;;;;27.70;16.75;;;;;;;;;;5034604;28;20468;-62
2020/12/04 01:04:41;;;;;;;28.95;17.77;;;;;;;;;;5034929;28;20048;-61
2020/12/04 01:07:07;;;;;;;26.95;16.40;;;;;;;;;;5033370;28;20026;-61
2020/12/04 01:09:34;;;;;;;27.25;15.30;;;;;;;;;;5034842;28;20029;-66
2020/12/04 01:11:59;;;;;;;27.08;15.95;;;;;;;;;;5034571;28;20083;-67
2020/12/04 01:14:26;;;;;;;27.45;17.13;;;;;;;;;;5034627;28;20031;-66
2020/12/04 01:16:51;;;;;;;29.58;17.38;;;;;;;;;;5034576;28;20029;-66
2020/12/04 01:19:17;;;;;;;25.27;16.63;;;;;;;;;;5034510;28;20075;-66
2020/12/04 01:21:42;;;;;;;24.58;15.57;;;;;;;;;;5034489;28;20040;-66
2020/12/04 01:24:08;;;;;;;26.60;15.35;;;;;;;;;;5034320;28;20092;-67
2020/12/04 01:26:33;;;;;;;27.38;15.98;;;;;;;;;;5016145;28;20117;-67
2020/12/04 01:28:59;;;;;;;24.63;15.13;;;;;;;;;;5034276;28;20447;-67
2020/12/04 01:31:24;;;;;;;25.35;15.10;;;;;;;;;;5034270;28;20037;-67
2020/12/04 01:33:51;;;;;;;25.27;15.32;;;;;;;;;;5040328;28;20543;-62
2020/12/04 01:36:16;;;;;;;28.13;16.75;;;;;;;;;;5049184;28;20107;-61
2020/12/04 01:38:42;;;;;;;25.38;15.77;;;;;;;;;;5044694;28;20113;-66
2020/12/04 01:41:07;;;;;;;27.20;16.40;;;;;;;;;;5033941;28;20029;-66
2020/12/04 01:43:33;;;;;;;24.65;15.40;;;;;;;;;;5032808;28;20022;-66
2020/12/04 01:45:59;;;;;;;28.15;15.70;;;;;;;;;;5034007;28;20026;-66
2020/12/04 01:48:26;;;;;;;24.50;14.70;;;;;;;;;;5033896;28;20055;-68
2020/12/04 01:50:52;;;;;;;26.27;15.43;;;;;;;;;;5047224;28;20048;-66
2020/12/04 01:53:21;;;;;;;24.02;15.05;;;;;;;;;;5053601;28;20021;-66
2020/12/04 01:55:48;;;;;;;24.65;14.10;;;;;;;;;;5053580;28;20029;-66
2020/12/04 01:58:16;;;;;;;22.02;14.88;;;;;;;;;;5053611;28;20069;-67
2020/12/04 02:00:43;;;;;;;22.67;13.95;;;;;;;;;;5051529;28;20074;-67
2020/12/04 02:03:08;;;;;;;24.13;14.75;;;;;;;;;;5033300;28;20408;-62
2020/12/04 02:05:37;;;;;;;22.02;14.50;;;;;;;;;;5034175;28;20037;-62
2020/12/04 02:08:29;;;;;;;23.65;13.88;;;;;;;;;;5033854;28;20567;-62
2020/12/04 02:11:14;;;;;;;21.60;14.10;;;;;;;;;;5033540;28;20049;-62
2020/12/04 02:13:41;;;;;;;21.88;13.88;;;;;;;;;;5033466;28;20452;-62
2020/12/04 02:16:06;;;;;;;20.90;13.80;;;;;;;;;;5033731;28;20040;-62
2020/12/04 02:18:36;;;;;;;21.73;12.95;;;;;;;;;;5033552;28;20484;-62
2020/12/04 02:21:02;;;;;;;21.43;12.77;;;;;;;;;;5033789;28;20115;-62
2020/12/04 02:23:27;;;;;;;21.17;13.13;;;;;;;;;;5033416;28;20715;-62
2020/12/04 02:25:54;;;;;;;20.63;12.77;;;;;;;;;;5032257;28;20096;-62
2020/12/04 02:28:29;;;;;;;19.33;12.80;;;;;;;;;;5033749;28;20376;-66
2020/12/04 02:30:55;;;;;;;20.60;13.30;;;;;;;;;;5033656;28;20025;-66
2020/12/04 02:33:20;;;;;;;18.30;11.77;;;;;;;;;;5033379;28;20096;-66
2020/12/04 02:35:46;;;;;;;20.27;12.25;;;;;;;;;;5031907;28;20124;-66
2020/12/04 02:38:11;;;;;;;19.08;12.25;;;;;;;;;;5034995;28;20025;-67
2020/12/04 02:40:37;;;;;;;18.38;12.27;;;;;;;;;;5037390;28;20057;-67
2020/12/04 02:43:02;;;;;;;19.50;11.82;;;;;;;;;;5037461;28;20022;-66
2020/12/04 02:45:28;;;;;;;18.20;11.90;;;;;;;;;;5037295;28;20381;-66
2020/12/04 02:47:53;;;;;;;19.15;12.40;;;;;;;;;;5037288;28;20041;-66
2020/12/04 02:50:19;;;;;;;15.60;11.35;;;;;;;;;;5037650;28;20025;-66
2020/12/04 02:52:44;;;;;;;18.10;11.35;;;;;;;;;;5037202;28;20017;-66
2020/12/04 02:55:10;;;;;;;17.35;10.85;;;;;;;;;;5037526;28;20110;-66
2020/12/04 02:57:35;;;;;;;17.52;10.82;;;;;;;;;;5037062;28;20025;-65
2020/12/04 03:00:01;;;;;;;15.73;10.35;;;;;;;;;;5036857;28;20041;-66
2020/12/04 03:02:26;;;;;;;14.77;10.48;;;;;;;;;;5035632;28;20018;-67
2020/12/04 03:04:52;;;;;;;14.90;10.25;;;;;;;;;;5036803;28;20056;-67
2020/12/04 03:07:17;;;;;;;16.40;10.35;;;;;;;;;;5035611;28;20108;-66
2020/12/04 03:09:43;;;;;;;15.30;10.05;;;;;;;;;;5038536;28;20110;-65
2020/12/04 03:12:08;;;;;;;16.27;11.20;;;;;;;;;;5048817;28;20028;-61
2020/12/04 03:14:34;;;;;;;18.92;12.27;;;;;;;;;;5052761;28;20037;-61
2020/12/04 03:16:59;;;;;;;16.88;11.10;;;;;;;;;;5036794;28;20028;-61
2020/12/04 03:19:25;;;;;;;17.25;10.65;;;;;;;;;;5035249;28;20025;-61
2020/12/04 03:21:50;;;;;;;16.65;10.50;;;;;;;;;;5036794;28;20017;-61
2020/12/04 03:24:16;;;;;;;15.05;10.32;;;;;;;;;;5035476;28;20076;-60
2020/12/04 03:26:41;;;;;;;14.13;9.60;;;;;;;;;;5056531;28;20028;-66
2020/12/04 03:29:07;;;;;;;12.68;9.43;;;;;;;;;;5056535;28;20082;-67
2020/12/04 03:31:32;;;;;;;12.98;9.48;;;;;;;;;;5056370;28;20017;-67
2020/12/04 03:33:58;;;;;;;16.02;9.30;;;;;;;;;;5056462;28;20112;-67
2020/12/04 03:36:23;;;;;;;19.63;13.05;;;;;;;;;;5055184;28;20055;-67
2020/12/04 03:38:50;;;;;;;37.85;27.15;;;;;;;;;;5050681;28;20065;-62
2020/12/04 03:41:15;;;;;;;17.58;13.05;;;;;;;;;;5036481;28;20018;-62
2020/12/04 03:43:41;;;;;;;14.38;10.45;;;;;;;;;;5036313;28;20029;-61
2020/12/04 03:46:12;;;;;;;20.40;15.52;;;;;;;;;;5036272;28;20013;-61
2020/12/04 03:48:42;;;;;;;14.40;10.60;;;;;;;;;;5034781;28;20026;-62
2020/12/04 03:51:11;;;;;;;17.20;14.23;;;;;;;;;;5035485;28;20021;-62
2020/12/04 03:53:38;;;;;;;15.38;12.98;;;;;;;;;;5036097;28;20033;-63
2020/12/04 03:56:03;;;;;;;13.55;9.85;;;;;;;;;;5036288;28;20025;-63
2020/12/04 03:58:29;;;;;;;12.77;8.70;;;;;;;;;;5034894;28;20026;-62
2020/12/04 04:00:55;;;;;;;12.70;9.18;;;;;;;;;;5036134;28;20432;-62
2020/12/04 04:03:20;;;;;;;15.07;9.70;;;;;;;;;;5034284;28;20060;-62
2020/12/04 04:05:46;;;;;;;12.20;8.60;;;;;;;;;;5036524;28;20124;-61
2020/12/04 04:08:11;;;;;;;11.15;7.95;;;;;;;;;;5034465;28;20049;-61
2020/12/04 04:10:37;;;;;;;10.38;7.88;;;;;;;;;;5036028;28;20025;-61
2020/12/04 04:13:02;;;;;;;10.90;8.80;;;;;;;;;;5034514;28;20029;-61
2020/12/04 04:15:29;;;;;;;11.30;8.07;;;;;;;;;;5035668;28;20468;-61
2020/12/04 04:17:55;;;;;;;9.68;8.30;;;;;;;;;;5035704;28;20104;-61
2020/12/04 04:20:20;;;;;;;11.55;9.73;;;;;;;;;;5035477;28;20067;-61
2020/12/04 04:22:46;;;;;;;10.73;8.27;;;;;;;;;;5035628;28;20167;-61
2020/12/04 04:25:15;;;;;;;10.60;7.72;;;;;;;;;;5034504;28;20049;-61
2020/12/04 04:27:41;;;;;;;9.10;7.65;;;;;;;;;;5035512;28;20545;-61
2020/12/04 04:30:08;;;;;;;11.45;8.38;;;;;;;;;;5035656;28;20018;-61
2020/12/04 04:32:33;;;;;;;12.05;8.98;;;;;;;;;;5035519;28;20028;-62
2020/12/04 04:34:59;;;;;;;13.90;9.93;;;;;;;;;;5035880;28;20014;-62
2020/12/04 04:37:24;;;;;;;12.80;9.55;;;;;;;;;;5035288;28;20068;-62
2020/12/04 04:39:50;;;;;;;12.38;8.95;;;;;;;;;;5035261;28;20030;-62
2020/12/04 04:42:17;;;;;;;11.38;8.60;;;;;;;;;;5034095;28;20025;-62
2020/12/04 04:44:44;;;;;;;12.60;8.77;;;;;;;;;;5035520;28;20364;-62
2020/12/04 04:47:16;;;;;;;13.80;8.65;;;;;;;;;;5067071;28;20025;-62
2020/12/04 04:49:48;;;;;;;10.35;8.77;;;;;;;;;;5034018;28;20030;-62
2020/12/04 04:52:14;;;;;;;13.65;8.90;;;;;;;;;;5035129;28;20120;-63
2020/12/04 04:54:47;;;;;;;11.93;8.98;;;;;;;;;;5036932;28;20071;-67
2020/12/04 04:57:14;;;;;;;13.97;10.07;;;;;;;;;;5046582;28;20075;-67
2020/12/04 04:59:43;;;;;;;15.82;11.25;;;;;;;;;;5034762;28;20026;-66
2020/12/04 05:02:12;;;;;;;24.73;21.27;;;;;;;;;;5033400;28;20040;-66
2020/12/04 05:04:57;;;;;;;29.27;20.88;;;;;;;;;;5034736;28;20038;-66
2020/12/04 05:07:27;;;;;;;44.85;40.00;;;;;;;;;;5034667;28;20511;-66
2020/12/04 05:09:53;;;;;;;16.17;14.25;;;;;;;;;;5034546;28;20128;-66
2020/12/04 05:12:19;;;;;;;14.23;11.38;;;;;;;;;;5046336;28;20087;-66
2020/12/04 05:14:45;;;;;;;17.63;14.35;;;;;;;;;;5054192;28;20024;-66
2020/12/04 05:17:10;;;;;;;13.98;10.10;;;;;;;;;;5054056;28;20032;-66
2020/12/04 05:19:38;;;;;;;11.02;9.18;;;;;;;;;;5053903;28;20083;-66
2020/12/04 05:22:14;;;;;;;11.43;8.88;;;;;;;;;;5054005;28;20112;-67
2020/12/04 05:24:40;;;;;;;13.20;9.43;;;;;;;;;;5054009;28;20033;-62
2020/12/04 05:27:41;;;;;;;9.52;7.63;;;;;;;;;;5053849;28;20099;-62
2020/12/04 05:30:06;;;;;;;13.55;10.20;;;;;;;;;;4995866;28;20040;-62
2020/12/04 05:32:32;;;;;;;13.00;8.75;;;;;;;;;;5045079;28;20108;-62
2020/12/04 05:35:08;;;;;;;11.23;8.40;;;;;;;;;;5053717;28;20145;-62
2020/12/04 05:37:33;;;;;;;13.00;9.50;;;;;;;;;;5053718;28;20048;-61
2020/12/04 05:39:58;;;;;;;12.88;9.13;;;;;;;;;;5053809;28;20474;-62
2020/12/04 05:42:31;;;;;;;12.48;8.57;;;;;;;;;;5053334;28;20055;-62
2020/12/04 05:44:57;;;;;;;13.52;9.18;;;;;;;;;;5053836;28;20396;-62
2020/12/04 05:47:33;;;;;;;11.82;9.15;;;;;;;;;;5053593;28;20017;-62
2020/12/04 05:49:59;;;;;;;11.80;9.95;;;;;;;;;;5053621;28;20033;-62
2020/12/04 05:52:24;;;;;;;10.30;8.27;;;;;;;;;;5053480;28;20112;-62
2020/12/04 05:54:50;;;;;;;14.38;9.90;;;;;;;;;;5053443;28;20025;-61
2020/12/04 05:57:16;;;;;;;15.15;10.13;;;;;;;;;;5053610;28;20024;-62
2020/12/04 05:59:44;;;;;;;13.75;9.30;;;;;;;;;;5053411;28;20043;-62
2020/12/04 06:02:13;;;;;;;18.05;11.43;;;;;;;;;;5053556;28;20021;-61
2020/12/04 06:04:40;;;;;;;16.83;11.10;;;;;;;;;;5052123;28;20120;-62
2020/12/04 06:07:06;;;;;;;14.98;10.20;;;;;;;;;;5053189;28;20036;-62
2020/12/04 06:09:32;;;;;;;12.02;8.60;;;;;;;;;;5052436;28;20482;-62
2020/12/04 06:11:57;;;;;;;9.60;8.48;;;;;;;;;;5051916;28;20024;-62
2020/12/04 06:14:25;;;;;;;11.48;8.88;;;;;;;;;;5053211;28;20029;-62
2020/12/04 06:16:59;;;;;;;11.27;8.63;;;;;;;;;;5053273;28;20050;-62
2020/12/04 06:19:31;;;;;;;11.02;9.13;;;;;;;;;;5053093;28;20395;-62
2020/12/04 06:22:13;;;;;;;12.63;9.10;;;;;;;;;;5053159;28;20021;-62
2020/12/04 06:24:54;;;;;;;17.48;11.43;;;;;;;;;;5053091;28;20037;-62
2020/12/04 06:27:38;;;;;;;14.65;10.60;;;;;;;;;;5053037;28;20051;-61
2020/12/04 06:30:04;;;;;;;31.38;18.48;;;;;;;;;;5052979;28;20033;-61
2020/12/04 06:32:37;;;;;;;17.85;10.75;;;;;;;;;;5052937;28;20426;-62
2020/12/04 06:35:03;;;;;;;19.35;12.00;;;;;;;;;;5052909;28;20395;-61
2020/12/04 06:37:35;;;;;;;16.73;10.05;;;;;;;;;;5052441;28;20028;-61
2020/12/04 06:40:33;;;;;;;19.45;11.75;;;;;;;;;;5051662;28;20033;-61
2020/12/04 06:43:00;;;;;;;18.17;11.50;;;;;;;;;;5040652;28;20068;-61
2020/12/04 06:45:52;;;;;;;34.03;19.33;;;;;;;;;;5052772;28;20017;-61
2020/12/04 06:48:18;;;;;;;34.53;16.05;;;;;;;;;;5051808;28;20437;-61
2020/12/04 06:50:44;;;;;;;24.38;14.60;;;;;;;;;;5052821;28;20020;-61
2020/12/04 06:53:11;;;;;;;25.55;13.02;;;;;;;;;;5052742;28;20029;-61
2020/12/04 06:55:37;;;;;;;35.70;17.38;;;;;;;;;;5052632;28;20021;-61
2020/12/04 06:58:03;;;;;;;50.17;19.85;;;;;;;;;;5052621;28;20391;-62
2020/12/04 07:00:29;;;;;;;56.00;21.30;;;;;;;;;;5052687;28;20099;-61
2020/12/04 07:02:54;;;;;;;48.00;19.27;;;;;;;;;;5052421;28;20079;-62
2020/12/04 07:05:24;;;;;;;32.92;16.13;;;;;;;;;;5051376;28;20042;-62
2020/12/04 07:07:49;;;;;;;74.90;39.72;;;;;;;;;;5052547;28;20025;-61
2020/12/04 07:10:15;;;;;;;38.70;20.10;;;;;;;;;;5052541;28;20013;-61
2020/12/04 07:12:41;;;;;;;43.42;25.15;;;;;;;;;;5052736;28;20029;-61
2020/12/04 07:15:06;;;;;;;24.80;14.50;;;;;;;;;;5052686;28;20013;-61
2020/12/04 07:17:32;;;;;;;18.02;11.77;;;;;;;;;;5052607;28;20025;-61
2020/12/04 07:20:01;;;;;;;29.05;15.98;;;;;;;;;;5052397;28;20079;-62
2020/12/04 07:22:27;;;;;;;19.20;12.73;;;;;;;;;;5052662;28;20036;-62
2020/12/04 07:24:54;;;;;;;23.05;14.88;;;;;;;;;;5055359;28;20017;-61
2020/12/04 07:27:24;;;;;;;57.22;29.30;;;;;;;;;;5056214;28;20036;-61
2020/12/04 07:29:50;;;;;;;;;;;;;;;;;;5055073;28;20041;-61
2020/12/04 07:32:19;;;;;;;53.83;30.42;;;;;;;;;;5055946;28;19908;-61
2020/12/04 07:34:44;;;;;;;16.83;11.65;;;;;;;;;;5056006;28;20479;-62
2020/12/04 07:37:10;;;;;;;21.75;15.95;;;;;;;;;;5054486;28;20025;-61
2020/12/04 07:39:37;;;;;;;12.18;9.68;;;;;;;;;;5055575;28;20041;-61
2020/12/04 07:42:03;;;;;;;15.40;11.07;;;;;;;;;;5055415;28;20047;-61
2020/12/04 07:44:39;;;;;;;12.57;10.95;;;;;;;;;;5055145;28;20025;-61
2020/12/04 07:47:14;;;;;;;46.45;29.23;;;;;;;;;;5054261;28;20025;-61
2020/12/04 07:49:45;;;;;;;17.92;11.80;;;;;;;;;;5055518;28;20116;-61
2020/12/04 07:52:10;;;;;;;12.77;10.18;;;;;;;;;;5055412;28;20033;-61
2020/12/04 07:54:39;;;;;;;43.08;28.73;;;;;;;;;;5054209;28;20074;-61
2020/12/04 07:57:05;;;;;;;32.75;28.00;;;;;;;;;;5055434;28;20025;-61
2020/12/04 07:59:32;;;;;;;27.58;18.52;;;;;;;;;;5055171;28;20028;-61
2020/12/04 08:01:58;;;;;;;177.98;140.05;;;;;;;;;;5054219;28;20392;-61
2020/12/04 08:04:24;;;;;;;132.15;93.57;;;;;;;;;;5053806;28;20071;-61
2020/12/04 08:06:49;;;;;;;56.08;32.53;;;;;;;;;;5055279;28;20033;-61
2020/12/04 08:09:16;;;;;;;37.85;27.33;;;;;;;;;;5055116;28;20032;-61
2020/12/04 08:11:48;;;;;;;28.60;18.88;;;;;;;;;;5055383;28;20048;-61
2020/12/04 08:14:14;;;;;;;23.38;17.80;;;;;;;;;;5055204;28;20123;-61
2020/12/04 08:16:41;;;;;;;18.63;14.90;;;;;;;;;;5055217;28;20463;-61
2020/12/04 08:19:12;;;;;;;22.17;15.23;;;;;;;;;;5054988;28;20036;-61
2020/12/04 08:21:56;;;;;;;18.33;11.93;;;;;;;;;;5055273;28;20116;-61
2020/12/04 08:24:23;;;;;;;22.52;13.10;;;;;;;;;;5055673;28;20060;-61
2020/12/04 08:26:57;;;;;;;29.50;17.45;;;;;;;;;;5055829;28;20427;-61
2020/12/04 08:29:23;;;;;;;29.25;17.83;;;;;;;;;;5055569;28;20119;-61
2020/12/04 08:32:02;;;;;;;56.83;28.30;;;;;;;;;;5055510;28;20103;-61
2020/12/04 08:34:27;;;;;;;48.05;24.45;;;;;;;;;;5054955;28;20040;-61
2020/12/04 08:37:03;;;;;;;35.83;19.15;;;;;;;;;;5054503;28;20029;-61
2020/12/04 08:39:49;;;;;;;22.98;14.32;;;;;;;;;;5055378;28;20047;-61
2020/12/04 08:42:18;;;;;;;18.85;12.00;;;;;;;;;;5053647;28;20090;-61
2020/12/04 08:44:53;;;;;;;18.73;11.77;;;;;;;;;;5054749;28;20550;-61
2020/12/04 08:47:48;;;;;;;15.95;10.80;;;;;;;;;;5054644;28;20029;-61
2020/12/04 08:50:21;;;;;;;15.82;11.25;;;;;;;;;;5049875;28;20127;-61
2020/12/04 08:52:54;;;;;;;23.63;14.23;;;;;;;;;;5054891;28;20036;-61
2020/12/04 08:55:25;;;;;;;22.02;12.18;;;;;;;;;;5054930;28;20479;-61
2020/12/04 08:57:52;;;;;;;26.92;15.35;;;;;;;;;;5054764;28;20033;-61
2020/12/04 09:00:19;;;;;;;22.45;12.43;;;;;;;;;;5054697;28;20021;-61
2020/12/04 09:02:45;;;;;;;22.35;11.82;;;;;;;;;;5054661;28;20024;-61
2020/12/04 09:05:15;;;;;;;18.27;12.02;;;;;;;;;;5033656;28;20033;-61
2020/12/04 09:07:40;;;;;;;17.35;10.63;;;;;;;;;;5034951;28;20024;-63
2020/12/04 09:10:07;;;;;;;18.83;11.55;;;;;;;;;;5034745;28;20390;-62
2020/12/04 09:12:33;;;;;;;17.42;11.80;;;;;;;;;;5034838;28;20022;-62
2020/12/04 09:14:58;;;;;;;20.15;11.82;;;;;;;;;;5034669;28;20423;-62
2020/12/04 09:17:25;;;;;;;22.20;13.88;;;;;;;;;;5034800;28;20026;-61
2020/12/04 09:19:51;;;;;;;19.88;11.13;;;;;;;;;;5034192;28;20441;-62
2020/12/04 09:22:16;;;;;;;20.13;11.77;;;;;;;;;;5034295;28;20045;-62
2020/12/04 09:24:42;;;;;;;14.95;10.95;;;;;;;;;;5034458;28;20026;-62
2020/12/04 09:27:08;;;;;;;21.55;12.55;;;;;;;;;;5033349;28;20025;-62
2020/12/04 09:29:35;;;;;;;18.65;11.40;;;;;;;;;;5034477;28;20036;-62
2020/12/04 09:32:18;;;;;;;17.08;11.27;;;;;;;;;;5034561;28;20018;-62
2020/12/04 09:34:46;;;;;;;17.30;10.63;;;;;;;;;;5034618;28;20418;-62
2020/12/04 09:37:13;;;;;;;14.40;10.18;;;;;;;;;;5033095;28;20029;-62
2020/12/04 09:39:39;;;;;;;14.77;10.25;;;;;;;;;;5034227;28;20076;-62
2020/12/04 09:42:07;;;;;;;16.70;10.48;;;;;;;;;;5033906;28;20017;-62
2020/12/04 09:44:33;;;;;;;15.05;10.90;;;;;;;;;;5034116;28;20040;-62
2020/12/04 09:46:58;;;;;;;20.00;12.38;;;;;;;;;;5033859;28;20445;-62
2020/12/04 09:49:27;;;;;;;19.60;10.93;;;;;;;;;;5033979;28;20116;-62
2020/12/04 09:51:57;;;;;;;14.93;10.68;;;;;;;;;;5033983;28;20033;-62
2020/12/04 09:54:22;;;;;;;13.85;9.63;;;;;;;;;;5033950;28;20507;-62
2020/12/04 09:56:50;;;;;;;16.30;10.48;;;;;;;;;;5033960;28;20029;-62
2020/12/04 09:59:16;;;;;;;11.43;9.35;;;;;;;;;;5032598;28;20036;-62
2020/12/04 10:01:41;;;;;;;13.63;10.15;;;;;;;;;;5033907;28;20010;-62
2020/12/04 10:04:07;;;;;;;15.65;10.57;;;;;;;;;;5043755;28;20036;-62
2020/12/04 10:06:33;;;;;;;15.90;10.30;;;;;;;;;;5050934;28;20052;-62
2020/12/04 10:08:59;;;;;;;16.02;10.60;;;;;;;;;;5051724;28;20005;-62
2020/12/04 10:11:25;;;;;;;12.60;9.65;;;;;;;;;;5051707;28;20033;-62
2020/12/04 10:13:50;;;;;;;16.02;9.68;;;;;;;;;;5051815;28;20013;-62
2020/12/04 10:16:16;;;;;;;13.15;9.25;;;;;;;;;;5051994;28;20052;-62
2020/12/04 10:18:41;;;;;;;14.32;9.48;;;;;;;;;;5051995;28;20017;-62
2020/12/04 10:21:07;;;;;;;16.77;10.85;;;;;;;;;;5051899;28;20112;-62
2020/12/04 10:23:33;;;;;;;15.48;10.27;;;;;;;;;;5051847;28;20021;-62
2020/12/04 10:25:59;;;;;;;17.90;10.07;;;;;;;;;;5051351;28;20029;-62
2020/12/04 10:28:24;;;;;;;15.00;9.70;;;;;;;;;;5035764;28;20036;-62
2020/12/04 10:30:50;;;;;;;10.90;7.93;;;;;;;;;;5052530;28;20122;-62
2020/12/04 10:33:15;;;;;;;13.77;9.90;;;;;;;;;;5053038;28;20032;-66
2020/12/04 10:35:41;;;;;;;11.05;8.70;;;;;;;;;;5052920;28;20462;-66
2020/12/04 10:38:10;;;;;;;12.57;8.52;;;;;;;;;;5053070;28;20021;-66
2020/12/04 10:40:36;;;;;;;10.35;8.32;;;;;;;;;;5051773;28;20033;-65
2020/12/04 10:43:02;;;;;;;14.68;8.38;;;;;;;;;;5053082;28;20352;-65
2020/12/04 10:45:27;;;;;;;9.43;7.93;;;;;;;;;;5053009;28;20033;-65
2020/12/04 10:47:53;;;;;;;11.55;8.55;;;;;;;;;;5053237;28;20440;-65
2020/12/04 10:50:18;;;;;;;11.38;8.40;;;;;;;;;;5053324;28;20025;-65
2020/12/04 10:52:44;;;;;;;10.35;8.40;;;;;;;;;;5052912;28;20079;-65
2020/12/04 10:55:09;;;;;;;10.63;8.05;;;;;;;;;;5053199;28;20032;-65
2020/12/04 10:57:35;;;;;;;11.23;8.80;;;;;;;;;;5053097;28;20032;-66
2020/12/04 11:00:01;;;;;;;12.65;8.48;;;;;;;;;;5056490;28;20106;-66
2020/12/04 11:02:33;;;;;;;12.32;8.57;;;;;;;;;;5057214;28;20075;-65
2020/12/04 11:07:48;;;;;;;14.38;10.00;;;;;;;;;;5055176;28;20064;-66
2020/12/04 11:10:14;;;;;;;18.05;12.05;;;;;;;;;;5056350;28;20028;-66
2020/12/04 11:12:41;;;;;;;17.05;10.50;;;;;;;;;;5056509;28;20059;-66
2020/12/04 11:15:09;;;;;;;16.70;12.02;;;;;;;;;;5056917;28;20083;-65
2020/12/04 11:17:38;;;;;;;12.80;9.40;;;;;;;;;;5055840;28;20048;-66
2020/12/04 11:20:03;;;;;;;18.10;10.70;;;;;;;;;;5055619;28;20040;-66
2020/12/04 11:22:33;;;;;;;15.25;10.25;;;;;;;;;;5056495;28;20017;-65
2020/12/04 11:25:00;;;;;;;28.70;17.30;;;;;;;;;;5056437;28;20078;-65
2020/12/04 11:27:27;;;;;;;12.32;9.60;;;;;;;;;;5055293;28;20108;-65
2020/12/04 11:29:52;;;;;;;13.52;9.23;;;;;;;;;;5056466;28;20033;-65
2020/12/04 11:32:18;;;;;;;12.88;9.75;;;;;;;;;;5056650;28;20021;-65
2020/12/04 11:34:43;;;;;;;14.18;8.63;;;;;;;;;;5056514;28;20025;-65
2020/12/04 11:37:12;;;;;;;11.50;8.65;;;;;;;;;;5056735;28;20052;-66
2020/12/04 11:39:41;;;;;;;11.55;8.90;;;;;;;;;;5056516;28;20029;-65
2020/12/04 11:42:07;;;;;;;11.45;9.30;;;;;;;;;;5056436;28;20464;-65
2020/12/04 11:44:33;;;;;;;11.13;8.88;;;;;;;;;;5056246;28;20060;-65
2020/12/04 11:46:59;;;;;;;13.10;9.60;;;;;;;;;;5056261;28;20041;-65
2020/12/04 11:49:24;;;;;;;13.18;9.25;;;;;;;;;;5056255;28;20123;-65
2020/12/04 11:51:50;;;;;;;11.27;9.32;;;;;;;;;;5056456;28;20127;-64
2020/12/04 11:54:15;;;;;;;12.88;9.02;;;;;;;;;;5056393;28;20053;-65
2020/12/04 11:56:46;;;;;;;13.25;9.32;;;;;;;;;;5055952;28;20100;-65
2020/12/04 11:59:12;;;;;;;12.57;8.98;;;;;;;;;;5056043;28;20349;-65
2020/12/04 12:01:37;;;;;;;13.35;9.10;;;;;;;;;;5054705;28;20102;-65
2020/12/04 12:04:03;;;;;;;13.15;9.85;;;;;;;;;;5055381;28;20124;-65
2020/12/04 12:06:30;;;;;;;10.82;8.23;;;;;;;;;;5055938;28;20479;-65
2020/12/04 12:08:55;;;;;;;11.32;8.32;;;;;;;;;;5055832;28;20467;-65
2020/12/04 12:11:22;;;;;;;13.13;8.82;;;;;;;;;;5055604;28;20021;-65
2020/12/04 12:13:48;;;;;;;10.90;8.48;;;;;;;;;;5055812;28;20455;-66
2020/12/04 12:16:17;;;;;;;11.80;8.57;;;;;;;;;;5054401;28;20037;-66
2020/12/04 12:18:42;;;;;;;11.15;7.97;;;;;;;;;;5055553;28;20031;-66
2020/12/04 12:21:08;;;;;;;11.70;7.75;;;;;;;;;;5055615;28;20459;-66
2020/12/04 12:23:35;;;;;;;13.55;8.80;;;;;;;;;;5055446;28;20024;-66
2020/12/04 12:26:02;;;;;;;10.40;8.00;;;;;;;;;;5055613;28;20055;-66
2020/12/04 12:28:27;;;;;;;12.10;8.18;;;;;;;;;;5055503;28;20020;-66
2020/12/04 12:30:53;;;;;;;11.85;7.82;;;;;;;;;;5055513;28;20086;-66
2020/12/04 12:33:20;;;;;;;10.65;7.40;;;;;;;;;;5055491;28;20405;-66
2020/12/04 12:35:46;;;;;;;9.88;7.88;;;;;;;;;;5055223;28;20070;-66
2020/12/04 12:38:11;;;;;;;9.70;7.82;;;;;;;;;;5055346;28;20021;-66
2020/12/04 12:40:37;;;;;;;9.98;8.52;;;;;;;;;;5055405;28;20387;-65
2020/12/04 12:43:03;;;;;;;11.50;8.90;;;;;;;;;;5055151;28;20013;-66
2020/12/04 12:45:28;;;;;;;11.25;8.35;;;;;;;;;;5055299;28;20040;-66
2020/12/04 12:47:54;;;;;;;9.10;7.82;;;;;;;;;;5055221;28;20005;-65
2020/12/04 12:50:20;;;;;;;11.80;8.77;;;;;;;;;;5055177;28;20021;-67
2020/12/04 12:52:45;;;;;;;11.18;7.68;;;;;;;;;;5055396;28;20021;-67
2020/12/04 12:55:11;;;;;;;13.77;8.10;;;;;;;;;;5055084;28;20029;-67
2020/12/04 12:57:36;;;;;;;8.63;7.68;;;;;;;;;;5054760;28;20009;-67
2020/12/04 13:00:04;;;;;;;11.02;7.85;;;;;;;;;;5055034;28;20106;-67
2020/12/04 13:02:29;;;;;;;9.57;7.28;;;;;;;;;;5054723;28;20394;-67
2020/12/04 13:04:55;;;;;;;12.82;8.75;;;;;;;;;;5054827;28;20047;-67
2020/12/04 13:07:21;;;;;;;11.65;8.05;;;;;;;;;;5054887;28;20526;-67
2020/12/04 13:09:47;;;;;;;12.23;7.95;;;;;;;;;;5054876;28;20078;-67
2020/12/04 13:12:12;;;;;;;12.10;8.45;;;;;;;;;;5054026;28;20418;-67
2020/12/04 13:14:38;;;;;;;10.35;8.20;;;;;;;;;;5054040;28;20029;-67
2020/12/04 13:17:04;;;;;;;13.55;8.63;;;;;;;;;;5054204;28;20013;-67
2020/12/04 13:19:29;;;;;;;11.30;8.23;;;;;;;;;;5052626;28;20380;-66
2020/12/04 13:21:56;;;;;;;9.45;8.10;;;;;;;;;;5053331;28;20099;-66
2020/12/04 13:24:22;;;;;;;8.55;7.15;;;;;;;;;;5053824;28;20025;-66
2020/12/04 13:26:48;;;;;;;9.10;7.20;;;;;;;;;;5053899;28;20017;-66
2020/12/04 13:29:13;;;;;;;8.95;6.97;;;;;;;;;;5053821;28;20039;-66
2020/12/04 13:31:39;;;;;;;9.75;7.47;;;;;;;;;;5053779;28;20021;-67
2020/12/04 13:34:04;;;;;;;8.13;7.18;;;;;;;;;;5053586;28;20455;-66
2020/12/04 13:36:30;;;;;;;8.40;6.82;;;;;;;;;;5053589;28;20074;-67
2020/12/04 13:38:56;;;;;;;8.40;7.45;;;;;;;;;;5053494;28;20057;-66
2020/12/04 13:41:21;;;;;;;10.43;7.13;;;;;;;;;;5053327;28;20456;-66
2020/12/04 13:43:47;;;;;;;9.88;7.40;;;;;;;;;;5052230;28;20029;-66
2020/12/04 13:46:13;;;;;;;11.23;9.13;;;;;;;;;;5053437;28;20017;-66
2020/12/04 13:48:41;;;;;;;11.95;7.93;;;;;;;;;;5051989;28;20047;-66
2020/12/04 13:51:06;;;;;;;14.10;8.45;;;;;;;;;;5053424;28;20295;-66
2020/12/04 13:53:31;;;;;;;12.55;9.05;;;;;;;;;;5053176;28;20033;-66
2020/12/04 13:55:57;;;;;;;13.07;8.07;;;;;;;;;;5053439;28;20037;-64
2020/12/04 13:58:22;;;;;;;16.08;10.88;;;;;;;;;;5053056;28;20037;-65
2020/12/04 14:00:48;;;;;;;14.77;9.77;;;;;;;;;;5053230;28;20044;-65
2020/12/04 14:03:15;;;;;;;14.85;10.32;;;;;;;;;;5052663;28;20110;-65
2020/12/04 14:05:41;;;;;;;23.17;16.95;;;;;;;;;;5053300;28;20017;-65
2020/12/04 14:08:07;;;;;;;24.50;17.02;;;;;;;;;;5053014;28;20044;-65
2020/12/04 14:10:32;;;;;;;26.90;17.77;;;;;;;;;;5051684;28;20029;-65
2020/12/04 14:12:57;;;;;;;42.90;24.73;;;;;;;;;;5053143;28;20013;-65
2020/12/04 14:15:23;;;;;;;30.50;17.27;;;;;;;;;;5053020;28;20074;-66
2020/12/04 14:17:49;;;;;;;23.02;15.82;;;;;;;;;;5053031;28;20017;-66
2020/12/04 14:20:15;;;;;;;45.42;26.50;;;;;;;;;;5052767;28;20029;-65
2020/12/04 14:22:41;;;;;;;27.73;16.95;;;;;;;;;;5052749;28;20017;-65
2020/12/04 14:25:09;;;;;;;23.90;15.57;;;;;;;;;;5052921;28;20079;-65
2020/12/04 14:27:35;;;;;;;61.38;23.42;;;;;;;;;;5052855;28;20045;-65